sensor_id;sensor_type;location;lat;lon;timestamp;temperature;humidity
73570;SHT30;61850;54.980;73.298;2023-01-15T00:00:08;-7.09;77.54
73570;SHT30;61850;54.980;73.298;2023-01-15T00:02:35;-7.12;77.68
73570;SHT30;61850;54.980;73.298;2023-01-15T00:05:02;-7.06;77.56
73570;SHT30;61850;54.980;73.298;2023-01-15T00:07:28;-7.06;77.67
73570;SHT30;61850;54.980;73.298;2023-01-15T00:09:55;-7.09;77.80
73570;SHT30;61850;54.980;73.298;2023-01-15T00:12:25;-7.09;77.86
73570;SHT30;61850;54.980;73.298;2023-01-15T00:14:51;-7.05;77.83
73570;SHT30;61850;54.980;73.298;2023-01-15T00:17:17;-7.06;77.89
73570;SHT30;61850;54.980;73.298;2023-01-15T00:19:48;-7.06;77.98
73570;SHT30;61850;54.980;73.298;2023-01-15T00:22:19;-7.08;78.13
73570;SHT30;61850;54.980;73.298;2023-01-15T00:24:46;-7.08;78.15
73570;SHT30;61850;54.980;73.298;2023-01-15T00:27:36;-7.02;78.16
73570;SHT30;61850;54.980;73.298;2023-01-15T00:30:15;-7.04;78.19
73570;SHT30;61850;54.980;73.298;2023-01-15T00:32:42;-7.06;78.33
73570;SHT30;61850;54.980;73.298;2023-01-15T00:35:27;-7.06;78.45
73570;SHT30;61850;54.980;73.298;2023-01-15T00:37:53;-7.02;78.43
73570;SHT30;61850;54.980;73.298;2023-01-15T00:40:21;-7.04;78.38
73570;SHT30;61850;54.980;73.298;2023-01-15T00:42:53;-7.04;78.48
73570;SHT30;61850;54.980;73.298;2023-01-15T00:45:20;-7.02;78.61
73570;SHT30;61850;54.980;73.298;2023-01-15T00:47:46;-6.99;78.49
73570;SHT30;61850;54.980;73.298;2023-01-15T00:50:19;-6.98;78.54
73570;SHT30;61850;54.980;73.298;2023-01-15T00:52:48;-7.02;78.51
73570;SHT30;61850;54.980;73.298;2023-01-15T00:55:22;-7.01;78.63
73570;SHT30;61850;54.980;73.298;2023-01-15T00:57:49;-6.96;78.61
73570;SHT30;61850;54.980;73.298;2023-01-15T01:00:16;-6.98;78.53
73570;SHT30;61850;54.980;73.298;2023-01-15T01:02:43;-6.98;78.55
73570;SHT30;61850;54.980;73.298;2023-01-15T01:05:10;-6.96;78.50
73570;SHT30;61850;54.980;73.298;2023-01-15T01:07:36;-6.99;78.59
73570;SHT30;61850;54.980;73.298;2023-01-15T01:10:03;-6.98;78.52
73570;SHT30;61850;54.980;73.298;2023-01-15T01:12:30;-6.96;78.51
73570;SHT30;61850;54.980;73.298;2023-01-15T01:14:56;-6.96;78.67
73570;SHT30;61850;54.980;73.298;2023-01-15T01:17:23;-6.95;78.50
73570;SHT30;61850;54.980;73.298;2023-01-15T01:19:49;-6.94;78.61
73570;SHT30;61850;54.980;73.298;2023-01-15T01:22:16;-6.98;78.64
73570;SHT30;61850;54.980;73.298;2023-01-15T01:24:47;-6.94;78.68
73570;SHT30;61850;54.980;73.298;2023-01-15T01:27:14;-6.96;78.71
73570;SHT30;61850;54.980;73.298;2023-01-15T01:29:43;-6.96;78.76
73570;SHT30;61850;54.980;73.298;2023-01-15T01:32:09;-6.95;78.65
73570;SHT30;61850;54.980;73.298;2023-01-15T01:34:44;-6.94;78.78
73570;SHT30;61850;54.980;73.298;2023-01-15T01:37:10;-6.94;78.70
73570;SHT30;61850;54.980;73.298;2023-01-15T01:39:36;-6.92;78.89
73570;SHT30;61850;54.980;73.298;2023-01-15T01:42:13;-6.94;78.84
73570;SHT30;61850;54.980;73.298;2023-01-15T01:47:12;-6.91;78.86
73570;SHT30;61850;54.980;73.298;2023-01-15T01:49:40;-6.94;78.85
73570;SHT30;61850;54.980;73.298;2023-01-15T01:52:22;-6.92;78.73
73570;SHT30;61850;54.980;73.298;2023-01-15T01:54:51;-6.92;78.78
73570;SHT30;61850;54.980;73.298;2023-01-15T01:57:22;-6.96;78.82
73570;SHT30;61850;54.980;73.298;2023-01-15T01:59:49;-6.98;78.99
73570;SHT30;61850;54.980;73.298;2023-01-15T02:02:15;-6.96;79.04
73570;SHT30;61850;54.980;73.298;2023-01-15T02:04:45;-7.02;79.11
73570;SHT30;61850;54.980;73.298;2023-01-15T02:07:11;-7.04;78.98
73570;SHT30;61850;54.980;73.298;2023-01-15T02:09:38;-6.99;79.21
73570;SHT30;61850;54.980;73.298;2023-01-15T02:12:17;-7.04;79.19
73570;SHT30;61850;54.980;73.298;2023-01-15T02:15:02;-7.04;79.04
73570;SHT30;61850;54.980;73.298;2023-01-15T02:28:03;-7.01;78.92
73570;SHT30;61850;54.980;73.298;2023-01-15T02:30:39;-6.99;78.82
73570;SHT30;61850;54.980;73.298;2023-01-15T02:33:08;-7.02;78.73
73570;SHT30;61850;54.980;73.298;2023-01-15T02:35:39;-7.06;78.81
73570;SHT30;61850;54.980;73.298;2023-01-15T02:38:10;-7.09;78.82
73570;SHT30;61850;54.980;73.298;2023-01-15T02:40:38;-7.02;78.56
73570;SHT30;61850;54.980;73.298;2023-01-15T02:43:06;-6.99;78.60
73570;SHT30;61850;54.980;73.298;2023-01-15T02:45:34;-7.05;78.60
73570;SHT30;61850;54.980;73.298;2023-01-15T02:48:09;-7.05;78.58
73570;SHT30;61850;54.980;73.298;2023-01-15T02:50:38;-7.05;78.67
73570;SHT30;61850;54.980;73.298;2023-01-15T02:53:06;-7.01;78.55
73570;SHT30;61850;54.980;73.298;2023-01-15T02:55:37;-6.98;78.56
73570;SHT30;61850;54.980;73.298;2023-01-15T02:58:08;-7.01;78.50
73570;SHT30;61850;54.980;73.298;2023-01-15T03:00:41;-7.01;78.42
73570;SHT30;61850;54.980;73.298;2023-01-15T03:08:23;-6.98;78.21
73570;SHT30;61850;54.980;73.298;2023-01-15T03:10:55;-6.99;78.18
73570;SHT30;61850;54.980;73.298;2023-01-15T03:19:03;-6.95;78.25
73570;SHT30;61850;54.980;73.298;2023-01-15T03:21:46;-6.98;78.19
73570;SHT30;61850;54.980;73.298;2023-01-15T03:24:18;-6.96;78.16
73570;SHT30;61850;54.980;73.298;2023-01-15T03:26:47;-6.95;78.26
73570;SHT30;61850;54.980;73.298;2023-01-15T03:29:26;-6.94;78.13
73570;SHT30;61850;54.980;73.298;2023-01-15T03:31:59;-6.95;78.06
73570;SHT30;61850;54.980;73.298;2023-01-15T03:34:30;-6.94;78.16
73570;SHT30;61850;54.980;73.298;2023-01-15T03:37:03;-6.95;78.12
73570;SHT30;61850;54.980;73.298;2023-01-15T03:39:33;-6.99;78.21
73570;SHT30;61850;54.980;73.298;2023-01-15T03:42:09;-7.01;78.25
73570;SHT30;61850;54.980;73.298;2023-01-15T03:47:36;-6.95;78.16
73570;SHT30;61850;54.980;73.298;2023-01-15T03:50:20;-6.98;78.26
73570;SHT30;61850;54.980;73.298;2023-01-15T03:52:49;-6.99;78.38
73570;SHT30;61850;54.980;73.298;2023-01-15T03:55:24;-6.96;78.30
73570;SHT30;61850;54.980;73.298;2023-01-15T03:58:08;-6.98;78.54
73570;SHT30;61850;54.980;73.298;2023-01-15T04:00:41;-6.94;78.70
73570;SHT30;61850;54.980;73.298;2023-01-15T04:03:19;-6.96;78.58
73570;SHT30;61850;54.980;73.298;2023-01-15T04:05:47;-6.96;78.79
73570;SHT30;61850;54.980;73.298;2023-01-15T04:08:16;-6.95;78.86
73570;SHT30;61850;54.980;73.298;2023-01-15T04:10:58;-7.01;79.04
73570;SHT30;61850;54.980;73.298;2023-01-15T04:13:28;-6.95;78.88
73570;SHT30;61850;54.980;73.298;2023-01-15T04:16:00;-6.94;78.82
73570;SHT30;61850;54.980;73.298;2023-01-15T04:18:26;-6.98;78.97
73570;SHT30;61850;54.980;73.298;2023-01-15T04:20:58;-6.98;78.93
73570;SHT30;61850;54.980;73.298;2023-01-15T04:23:24;-6.96;78.82
73570;SHT30;61850;54.980;73.298;2023-01-15T04:26:00;-6.94;78.82
73570;SHT30;61850;54.980;73.298;2023-01-15T04:28:26;-7.01;78.94
73570;SHT30;61850;54.980;73.298;2023-01-15T04:30:55;-6.98;78.95
73570;SHT30;61850;54.980;73.298;2023-01-15T04:33:31;-6.92;78.73
73570;SHT30;61850;54.980;73.298;2023-01-15T04:36:04;-6.89;78.66
73570;SHT30;61850;54.980;73.298;2023-01-15T04:38:31;-6.88;78.54
73570;SHT30;61850;54.980;73.298;2023-01-15T04:41:05;-6.87;78.19
73570;SHT30;61850;54.980;73.298;2023-01-15T04:43:51;-6.91;78.06
73570;SHT30;61850;54.980;73.298;2023-01-15T04:46:33;-6.89;78.01
73570;SHT30;61850;54.980;73.298;2023-01-15T04:49:05;-6.81;77.93
73570;SHT30;61850;54.980;73.298;2023-01-15T04:51:42;-6.83;77.68
73570;SHT30;61850;54.980;73.298;2023-01-15T04:54:09;-6.75;77.73
73570;SHT30;61850;54.980;73.298;2023-01-15T04:56:36;-6.83;77.59
73570;SHT30;61850;54.980;73.298;2023-01-15T04:59:03;-6.81;77.43
73570;SHT30;61850;54.980;73.298;2023-01-15T05:01:30;-6.80;77.55
73570;SHT30;61850;54.980;73.298;2023-01-15T05:03:56;-6.78;77.48
73570;SHT30;61850;54.980;73.298;2023-01-15T05:06:24;-6.78;77.36
73570;SHT30;61850;54.980;73.298;2023-01-15T05:08:56;-6.80;77.51
73570;SHT30;61850;54.980;73.298;2023-01-15T05:11:27;-6.71;77.39
73570;SHT30;61850;54.980;73.298;2023-01-15T05:13:54;-6.74;77.05
73570;SHT30;61850;54.980;73.298;2023-01-15T05:16:27;-6.66;77.14
73570;SHT30;61850;54.980;73.298;2023-01-15T05:19:00;-6.67;76.99
73570;SHT30;61850;54.980;73.298;2023-01-15T05:21:29;-6.66;77.07
73570;SHT30;61850;54.980;73.298;2023-01-15T05:23:57;-6.67;76.89
73570;SHT30;61850;54.980;73.298;2023-01-15T05:26:25;-6.63;76.87
73570;SHT30;61850;54.980;73.298;2023-01-15T05:29:01;-6.60;76.65
73570;SHT30;61850;54.980;73.298;2023-01-15T05:31:28;-6.67;76.66
73570;SHT30;61850;54.980;73.298;2023-01-15T05:34:04;-6.70;77.01
73570;SHT30;61850;54.980;73.298;2023-01-15T05:36:36;-6.67;77.13
73570;SHT30;61850;54.980;73.298;2023-01-15T05:39:02;-6.68;77.24
73570;SHT30;61850;54.980;73.298;2023-01-15T05:41:29;-6.75;77.44
73570;SHT30;61850;54.980;73.298;2023-01-15T05:44:19;-6.71;77.57
73570;SHT30;61850;54.980;73.298;2023-01-15T05:46:47;-6.73;77.47
73570;SHT30;61850;54.980;73.298;2023-01-15T05:49:25;-6.75;77.56
73570;SHT30;61850;54.980;73.298;2023-01-15T05:51:52;-6.71;77.61
73570;SHT30;61850;54.980;73.298;2023-01-15T05:54:20;-6.61;77.35
73570;SHT30;61850;54.980;73.298;2023-01-15T05:56:55;-6.58;77.16
73570;SHT30;61850;54.980;73.298;2023-01-15T05:59:22;-6.57;77.50
73570;SHT30;61850;54.980;73.298;2023-01-15T06:01:49;-6.46;77.26
73570;SHT30;61850;54.980;73.298;2023-01-15T06:04:25;-6.48;76.84
73570;SHT30;61850;54.980;73.298;2023-01-15T06:06:52;-6.54;77.18
73570;SHT30;61850;54.980;73.298;2023-01-15T06:09:24;-6.48;77.15
73570;SHT30;61850;54.980;73.298;2023-01-15T06:11:52;-6.50;77.11
73570;SHT30;61850;54.980;73.298;2023-01-15T06:14:19;-6.54;77.02
73570;SHT30;61850;54.980;73.298;2023-01-15T06:16:48;-6.57;76.99
73570;SHT30;61850;54.980;73.298;2023-01-15T06:19:23;-6.60;77.20
73570;SHT30;61850;54.980;73.298;2023-01-15T06:21:50;-6.56;77.34
73570;SHT30;61850;54.980;73.298;2023-01-15T06:24:17;-6.40;77.23
73570;SHT30;61850;54.980;73.298;2023-01-15T06:26:44;-6.33;76.88
73570;SHT30;61850;54.980;73.298;2023-01-15T06:29:12;-6.43;76.79
73570;SHT30;61850;54.980;73.298;2023-01-15T06:31:42;-6.38;76.87
73570;SHT30;61850;54.980;73.298;2023-01-15T06:34:08;-6.37;76.64
73570;SHT30;61850;54.980;73.298;2023-01-15T06:36:34;-6.36;76.82
73570;SHT30;61850;54.980;73.298;2023-01-15T06:39:00;-6.38;76.62
73570;SHT30;61850;54.980;73.298;2023-01-15T06:41:33;-6.37;76.40
73570;SHT30;61850;54.980;73.298;2023-01-15T06:44:24;-6.37;76.68
73570;SHT30;61850;54.980;73.298;2023-01-15T06:47:16;-6.30;76.42
73570;SHT30;61850;54.980;73.298;2023-01-15T06:49:51;-6.27;76.37
73570;SHT30;61850;54.980;73.298;2023-01-15T06:52:18;-6.30;76.73
73570;SHT30;61850;54.980;73.298;2023-01-15T06:54:45;-6.32;76.31
73570;SHT30;61850;54.980;73.298;2023-01-15T06:57:21;-6.25;76.10
73570;SHT30;61850;54.980;73.298;2023-01-15T06:59:55;-6.30;75.70
73570;SHT30;61850;54.980;73.298;2023-01-15T07:02:31;-6.38;75.57
73570;SHT30;61850;54.980;73.298;2023-01-15T07:04:57;-6.46;75.73
73570;SHT30;61850;54.980;73.298;2023-01-15T07:07:23;-6.51;75.84
73570;SHT30;61850;54.980;73.298;2023-01-15T07:09:53;-6.46;76.02
73570;SHT30;61850;54.980;73.298;2023-01-15T07:12:19;-6.38;75.91
73570;SHT30;61850;54.980;73.298;2023-01-15T07:14:54;-6.33;75.60
73570;SHT30;61850;54.980;73.298;2023-01-15T07:17:30;-6.29;75.34
73570;SHT30;61850;54.980;73.298;2023-01-15T07:19:57;-6.41;75.58
73570;SHT30;61850;54.980;73.298;2023-01-15T07:22:24;-6.51;75.49
73570;SHT30;61850;54.980;73.298;2023-01-15T07:24:50;-6.46;75.56
73570;SHT30;61850;54.980;73.298;2023-01-15T07:27:27;-6.37;75.66
73570;SHT30;61850;54.980;73.298;2023-01-15T07:30:03;-6.34;75.41
73570;SHT30;61850;54.980;73.298;2023-01-15T07:32:30;-6.34;75.35
73570;SHT30;61850;54.980;73.298;2023-01-15T07:34:57;-6.38;75.42
73570;SHT30;61850;54.980;73.298;2023-01-15T07:37:24;-6.32;75.42
73570;SHT30;61850;54.980;73.298;2023-01-15T07:39:50;-6.23;75.27
73570;SHT30;61850;54.980;73.298;2023-01-15T07:42:16;-6.36;75.33
73570;SHT30;61850;54.980;73.298;2023-01-15T07:45:02;-6.36;75.47
73570;SHT30;61850;54.980;73.298;2023-01-15T07:47:47;-6.33;75.43
73570;SHT30;61850;54.980;73.298;2023-01-15T07:50:32;-6.37;75.99
73570;SHT30;61850;54.980;73.298;2023-01-15T07:53:09;-6.40;76.31
73570;SHT30;61850;54.980;73.298;2023-01-15T07:55:40;-6.30;76.24
73570;SHT30;61850;54.980;73.298;2023-01-15T07:58:06;-6.44;76.41
73570;SHT30;61850;54.980;73.298;2023-01-15T08:00:33;-6.38;76.40
73570;SHT30;61850;54.980;73.298;2023-01-15T08:03:00;-6.43;76.48
73570;SHT30;61850;54.980;73.298;2023-01-15T08:05:28;-6.44;76.43
73570;SHT30;61850;54.980;73.298;2023-01-15T08:07:54;-6.36;76.73
73570;SHT30;61850;54.980;73.298;2023-01-15T08:10:21;-6.33;76.63
73570;SHT30;61850;54.980;73.298;2023-01-15T08:12:50;-6.36;76.12
73570;SHT30;61850;54.980;73.298;2023-01-15T08:15:45;-6.37;76.52
73570;SHT30;61850;54.980;73.298;2023-01-15T08:18:11;-6.40;76.42
73570;SHT30;61850;54.980;73.298;2023-01-15T08:20:38;-6.40;76.71
73570;SHT30;61850;54.980;73.298;2023-01-15T08:23:09;-6.46;76.39
73570;SHT30;61850;54.980;73.298;2023-01-15T08:25:37;-6.51;76.64
73570;SHT30;61850;54.980;73.298;2023-01-15T08:28:03;-6.53;76.46
73570;SHT30;61850;54.980;73.298;2023-01-15T08:30:29;-6.46;76.32
73570;SHT30;61850;54.980;73.298;2023-01-15T08:32:59;-6.48;76.26
73570;SHT30;61850;54.980;73.298;2023-01-15T08:35:27;-6.54;76.36
73570;SHT30;61850;54.980;73.298;2023-01-15T08:37:54;-6.48;76.51
73570;SHT30;61850;54.980;73.298;2023-01-15T08:40:26;-6.40;76.26
73570;SHT30;61850;54.980;73.298;2023-01-15T08:42:59;-6.46;75.77
73570;SHT30;61850;54.980;73.298;2023-01-15T08:45:25;-6.57;75.80
73570;SHT30;61850;54.980;73.298;2023-01-15T08:47:54;-6.43;75.98
73570;SHT30;61850;54.980;73.298;2023-01-15T08:50:21;-6.36;75.79
73570;SHT30;61850;54.980;73.298;2023-01-15T08:52:48;-6.32;75.96
73570;SHT30;61850;54.980;73.298;2023-01-15T08:55:14;-6.27;75.73
73570;SHT30;61850;54.980;73.298;2023-01-15T08:57:46;-6.25;75.71
73570;SHT30;61850;54.980;73.298;2023-01-15T09:00:13;-6.20;75.88
73570;SHT30;61850;54.980;73.298;2023-01-15T09:02:40;-6.19;75.86
73570;SHT30;61850;54.980;73.298;2023-01-15T09:05:11;-6.27;76.13
73570;SHT30;61850;54.980;73.298;2023-01-15T09:07:46;-6.32;76.25
73570;SHT30;61850;54.980;73.298;2023-01-15T09:10:13;-6.38;76.71
73570;SHT30;61850;54.980;73.298;2023-01-15T09:12:40;-6.36;76.48
73570;SHT30;61850;54.980;73.298;2023-01-15T09:15:07;-6.29;76.36
73570;SHT30;61850;54.980;73.298;2023-01-15T09:17:33;-6.32;76.24
73570;SHT30;61850;54.980;73.298;2023-01-15T09:20:09;-6.13;75.87
73570;SHT30;61850;54.980;73.298;2023-01-15T09:22:40;-6.17;75.85
73570;SHT30;61850;54.980;73.298;2023-01-15T09:25:12;-6.10;75.87
73570;SHT30;61850;54.980;73.298;2023-01-15T09:27:38;-6.25;75.99
73570;SHT30;61850;54.980;73.298;2023-01-15T09:30:09;-6.27;76.05
73570;SHT30;61850;54.980;73.298;2023-01-15T09:32:35;-6.46;76.29
73570;SHT30;61850;54.980;73.298;2023-01-15T09:37:54;-6.43;76.60
73570;SHT30;61850;54.980;73.298;2023-01-15T09:41:06;-6.38;76.84
73570;SHT30;61850;54.980;73.298;2023-01-15T09:45:44;-6.37;76.60
73570;SHT30;61850;54.980;73.298;2023-01-15T09:51:01;-6.53;77.08
73570;SHT30;61850;54.980;73.298;2023-01-15T09:56:07;-6.68;76.78
73570;SHT30;61850;54.980;73.298;2023-01-15T09:58:37;-6.74;76.86
73570;SHT30;61850;54.980;73.298;2023-01-15T10:01:05;-6.63;77.12
73570;SHT30;61850;54.980;73.298;2023-01-15T10:06:19;-6.68;77.11
73570;SHT30;61850;54.980;73.298;2023-01-15T10:11:37;-6.57;76.75
73570;SHT30;61850;54.980;73.298;2023-01-15T10:14:30;-6.51;76.90
73570;SHT30;61850;54.980;73.298;2023-01-15T10:17:00;-6.54;77.04
73570;SHT30;61850;54.980;73.298;2023-01-15T10:19:27;-6.60;77.10
73570;SHT30;61850;54.980;73.298;2023-01-15T10:22:05;-6.54;76.84
73570;SHT30;61850;54.980;73.298;2023-01-15T10:27:28;-6.50;76.84
73570;SHT30;61850;54.980;73.298;2023-01-15T10:30:04;-6.47;76.83
73570;SHT30;61850;54.980;73.298;2023-01-15T10:32:38;-6.47;76.76
73570;SHT30;61850;54.980;73.298;2023-01-15T10:43:45;-6.43;77.01
73570;SHT30;61850;54.980;73.298;2023-01-15T10:46:21;-6.47;77.11
73570;SHT30;61850;54.980;73.298;2023-01-15T10:48:58;-6.51;77.46
73570;SHT30;61850;54.980;73.298;2023-01-15T10:51:39;-6.54;77.40
73570;SHT30;61850;54.980;73.298;2023-01-15T10:59:51;-6.61;77.89
73570;SHT30;61850;54.980;73.298;2023-01-15T11:02:36;-6.63;77.85
73570;SHT30;61850;54.980;73.298;2023-01-15T11:05:04;-6.70;78.05
73570;SHT30;61850;54.980;73.298;2023-01-15T11:07:47;-6.68;77.84
73570;SHT30;61850;54.980;73.298;2023-01-15T11:10:19;-6.67;77.88
73570;SHT30;61850;54.980;73.298;2023-01-15T11:13:10;-6.68;78.24
73570;SHT30;61850;54.980;73.298;2023-01-15T11:15:58;-6.73;78.12
73570;SHT30;61850;54.980;73.298;2023-01-15T11:18:55;-6.74;78.27
73570;SHT30;61850;54.980;73.298;2023-01-15T11:21:41;-6.70;78.27
73570;SHT30;61850;54.980;73.298;2023-01-15T11:24:12;-6.68;78.31
73570;SHT30;61850;54.980;73.298;2023-01-15T11:26:46;-6.73;78.63
73570;SHT30;61850;54.980;73.298;2023-01-15T11:29:14;-6.71;78.94
73570;SHT30;61850;54.980;73.298;2023-01-15T11:31:41;-6.77;79.33
73570;SHT30;61850;54.980;73.298;2023-01-15T11:34:17;-6.75;79.43
73570;SHT30;61850;54.980;73.298;2023-01-15T11:36:43;-6.78;79.60
73570;SHT30;61850;54.980;73.298;2023-01-15T11:39:25;-6.81;79.55
73570;SHT30;61850;54.980;73.298;2023-01-15T11:42:05;-6.77;79.60
73570;SHT30;61850;54.980;73.298;2023-01-15T11:44:54;-6.78;79.64
73570;SHT30;61850;54.980;73.298;2023-01-15T11:47:51;-6.78;79.79
73570;SHT30;61850;54.980;73.298;2023-01-15T11:53:40;-6.77;79.58
73570;SHT30;61850;54.980;73.298;2023-01-15T11:56:10;-6.77;79.54
73570;SHT30;61850;54.980;73.298;2023-01-15T11:58:39;-6.83;79.79
73570;SHT30;61850;54.980;73.298;2023-01-15T12:01:20;-6.89;80.55
73570;SHT30;61850;54.980;73.298;2023-01-15T12:03:47;-6.88;81.09
73570;SHT30;61850;54.980;73.298;2023-01-15T12:06:13;-6.89;81.71
73570;SHT30;61850;54.980;73.298;2023-01-15T12:11:18;-6.88;81.88
73570;SHT30;61850;54.980;73.298;2023-01-15T12:13:52;-6.92;82.23
73570;SHT30;61850;54.980;73.298;2023-01-15T12:29:33;-7.13;85.81
73570;SHT30;61850;54.980;73.298;2023-01-15T12:32:07;-7.15;85.79
73570;SHT30;61850;54.980;73.298;2023-01-15T12:34:53;-7.12;85.68
73570;SHT30;61850;54.980;73.298;2023-01-15T12:37:31;-7.18;85.73
73570;SHT30;61850;54.980;73.298;2023-01-15T12:42:32;-7.25;85.84
73570;SHT30;61850;54.980;73.298;2023-01-15T12:45:20;-7.25;85.98
73570;SHT30;61850;54.980;73.298;2023-01-15T12:53:24;-7.16;86.14
73570;SHT30;61850;54.980;73.298;2023-01-15T12:55:58;-7.18;86.09
73570;SHT30;61850;54.980;73.298;2023-01-15T12:58:30;-7.13;85.95
73570;SHT30;61850;54.980;73.298;2023-01-15T13:01:35;-7.16;85.83
73570;SHT30;61850;54.980;73.298;2023-01-15T13:03:53;-7.23;85.92
73570;SHT30;61850;54.980;73.298;2023-01-15T13:06:22;-7.27;86.07
73570;SHT30;61850;54.980;73.298;2023-01-15T13:08:57;-7.22;86.13
73570;SHT30;61850;54.980;73.298;2023-01-15T13:11:26;-7.20;86.31
73570;SHT30;61850;54.980;73.298;2023-01-15T13:14:02;-7.22;86.57
73570;SHT30;61850;54.980;73.298;2023-01-15T13:19:09;-7.25;86.50
73570;SHT30;61850;54.980;73.298;2023-01-15T13:21:40;-7.20;86.23
73570;SHT30;61850;54.980;73.298;2023-01-15T13:32:15;-7.23;86.38
73570;SHT30;61850;54.980;73.298;2023-01-15T13:37:30;-7.26;86.60
73570;SHT30;61850;54.980;73.298;2023-01-15T13:39:57;-7.27;86.39
73570;SHT30;61850;54.980;73.298;2023-01-15T13:42:30;-7.20;86.30
73570;SHT30;61850;54.980;73.298;2023-01-15T13:47:34;-7.18;86.00
73570;SHT30;61850;54.980;73.298;2023-01-15T13:50:04;-7.15;85.91
73570;SHT30;61850;54.980;73.298;2023-01-15T13:52:35;-7.19;86.09
73570;SHT30;61850;54.980;73.298;2023-01-15T13:55:26;-7.19;86.03
73570;SHT30;61850;54.980;73.298;2023-01-15T13:57:54;-7.16;85.92
73570;SHT30;61850;54.980;73.298;2023-01-15T14:02:52;-7.13;85.94
73570;SHT30;61850;54.980;73.298;2023-01-15T14:07:48;-7.12;86.06
73570;SHT30;61850;54.980;73.298;2023-01-15T14:10:21;-7.16;86.03
73570;SHT30;61850;54.980;73.298;2023-01-15T14:23:27;-7.04;85.67
73570;SHT30;61850;54.980;73.298;2023-01-15T14:36:17;-6.95;86.16
73570;SHT30;61850;54.980;73.298;2023-01-15T14:38:45;-6.95;86.08
73570;SHT30;61850;54.980;73.298;2023-01-15T14:41:13;-6.92;86.01
73570;SHT30;61850;54.980;73.298;2023-01-15T14:43:39;-6.89;85.99
73570;SHT30;61850;54.980;73.298;2023-01-15T14:46:54;-6.88;86.08
73570;SHT30;61850;54.980;73.298;2023-01-15T14:48:53;-6.88;86.13
73570;SHT30;61850;54.980;73.298;2023-01-15T14:53:55;-6.84;86.17
73570;SHT30;61850;54.980;73.298;2023-01-15T14:56:36;-6.85;86.20
73570;SHT30;61850;54.980;73.298;2023-01-15T14:59:09;-6.85;86.09
73570;SHT30;61850;54.980;73.298;2023-01-15T15:01:50;-6.80;85.98
73570;SHT30;61850;54.980;73.298;2023-01-15T15:04:35;-6.84;86.10
73570;SHT30;61850;54.980;73.298;2023-01-15T15:07:12;-6.73;85.84
73570;SHT30;61850;54.980;73.298;2023-01-15T15:09:40;-6.67;85.59
73570;SHT30;61850;54.980;73.298;2023-01-15T15:17:30;-6.71;85.59
73570;SHT30;61850;54.980;73.298;2023-01-15T15:20:23;-6.71;85.60
73570;SHT30;61850;54.980;73.298;2023-01-15T15:22:54;-6.73;85.58
73570;SHT30;61850;54.980;73.298;2023-01-15T15:25:22;-6.75;85.53
73570;SHT30;61850;54.980;73.298;2023-01-15T15:28:04;-6.70;85.82
73570;SHT30;61850;54.980;73.298;2023-01-15T15:30:41;-6.58;85.59
73570;SHT30;61850;54.980;73.298;2023-01-15T15:33:08;-6.50;84.82
73570;SHT30;61850;54.980;73.298;2023-01-15T15:35:37;-6.50;84.80
73570;SHT30;61850;54.980;73.298;2023-01-15T15:38:05;-6.48;84.64
73570;SHT30;61850;54.980;73.298;2023-01-15T15:40:48;-6.48;84.76
73570;SHT30;61850;54.980;73.298;2023-01-15T15:46:17;-6.46;84.78
73570;SHT30;61850;54.980;73.298;2023-01-15T15:49:09;-6.38;84.44
73570;SHT30;61850;54.980;73.298;2023-01-15T15:51:37;-6.38;84.32
73570;SHT30;61850;54.980;73.298;2023-01-15T15:56:46;-6.23;83.78
73570;SHT30;61850;54.980;73.298;2023-01-15T15:59:30;-6.25;83.99
73570;SHT30;61850;54.980;73.298;2023-01-15T16:01:58;-6.29;84.04
73570;SHT30;61850;54.980;73.298;2023-01-15T16:04:25;-6.33;84.18
73570;SHT30;61850;54.980;73.298;2023-01-15T16:06:52;-6.33;84.38
73570;SHT30;61850;54.980;73.298;2023-01-15T16:09:19;-6.41;84.64
73570;SHT30;61850;54.980;73.298;2023-01-15T16:11:45;-6.41;84.65
73570;SHT30;61850;54.980;73.298;2023-01-15T16:14:13;-6.43;84.79
73570;SHT30;61850;54.980;73.298;2023-01-15T16:16:42;-6.43;84.68
73570;SHT30;61850;54.980;73.298;2023-01-15T16:19:10;-6.58;84.97
73570;SHT30;61850;54.980;73.298;2023-01-15T16:21:39;-6.58;85.29
73570;SHT30;61850;54.980;73.298;2023-01-15T16:24:20;-6.57;85.21
73570;SHT30;61850;54.980;73.298;2023-01-15T16:26:59;-6.50;85.12
73570;SHT30;61850;54.980;73.298;2023-01-15T16:29:31;-6.47;84.97
73570;SHT30;61850;54.980;73.298;2023-01-15T16:32:10;-6.51;85.04
73570;SHT30;61850;54.980;73.298;2023-01-15T16:34:46;-6.48;84.95
73570;SHT30;61850;54.980;73.298;2023-01-15T16:37:22;-6.50;84.94
73570;SHT30;61850;54.980;73.298;2023-01-15T16:40:01;-6.50;84.99
73570;SHT30;61850;54.980;73.298;2023-01-15T16:42:36;-6.61;85.32
73570;SHT30;61850;54.980;73.298;2023-01-15T16:45:24;-6.66;85.44
73570;SHT30;61850;54.980;73.298;2023-01-15T16:50:38;-6.61;85.56
73570;SHT30;61850;54.980;73.298;2023-01-15T16:56:02;-6.63;85.54
73570;SHT30;61850;54.980;73.298;2023-01-15T16:58:39;-6.61;85.66
73570;SHT30;61850;54.980;73.298;2023-01-15T17:04:00;-6.64;85.67
73570;SHT30;61850;54.980;73.298;2023-01-15T17:06:31;-6.64;85.75
73570;SHT30;61850;54.980;73.298;2023-01-15T17:09:04;-6.66;85.78
73570;SHT30;61850;54.980;73.298;2023-01-15T17:11:30;-6.66;85.76
73570;SHT30;61850;54.980;73.298;2023-01-15T17:14:09;-6.71;85.89
73570;SHT30;61850;54.980;73.298;2023-01-15T17:16:36;-6.70;85.91
73570;SHT30;61850;54.980;73.298;2023-01-15T17:19:03;-6.71;85.97
73570;SHT30;61850;54.980;73.298;2023-01-15T17:21:29;-6.70;85.94
73570;SHT30;61850;54.980;73.298;2023-01-15T17:24:01;-6.81;86.14
73570;SHT30;61850;54.980;73.298;2023-01-15T17:26:28;-6.75;86.10
73570;SHT30;61850;54.980;73.298;2023-01-15T17:28:55;-6.78;86.07
73570;SHT30;61850;54.980;73.298;2023-01-15T17:33:51;-6.73;86.03
73570;SHT30;61850;54.980;73.298;2023-01-15T17:36:18;-6.74;86.06
73570;SHT30;61850;54.980;73.298;2023-01-15T17:38:45;-6.78;86.25
73570;SHT30;61850;54.980;73.298;2023-01-15T17:41:12;-6.77;86.35
73570;SHT30;61850;54.980;73.298;2023-01-15T17:43:41;-6.77;86.45
73570;SHT30;61850;54.980;73.298;2023-01-15T17:46:12;-6.77;86.33
73570;SHT30;61850;54.980;73.298;2023-01-15T17:48:39;-6.77;86.46
73570;SHT30;61850;54.980;73.298;2023-01-15T17:51:11;-6.74;86.38
73570;SHT30;61850;54.980;73.298;2023-01-15T17:53:48;-6.75;86.51
73570;SHT30;61850;54.980;73.298;2023-01-15T17:56:20;-6.83;86.35
73570;SHT30;61850;54.980;73.298;2023-01-15T17:59:06;-6.85;86.51
73570;SHT30;61850;54.980;73.298;2023-01-15T18:01:51;-6.88;86.53
73570;SHT30;61850;54.980;73.298;2023-01-15T18:04:50;-6.84;86.45
73570;SHT30;61850;54.980;73.298;2023-01-15T18:07:37;-6.91;86.47
73570;SHT30;61850;54.980;73.298;2023-01-15T18:10:11;-6.89;86.38
73570;SHT30;61850;54.980;73.298;2023-01-15T18:12:52;-6.91;86.36
73570;SHT30;61850;54.980;73.298;2023-01-15T18:15:24;-6.91;86.17
73570;SHT30;61850;54.980;73.298;2023-01-15T18:17:55;-6.85;85.97